Главная страница
METAR-TAF:

METAR-TAF

Аэропорты :

Каир, Египет

широта: 30-08N, долгота: 031-24E, высота над уровнем моря: 64 м

Текущие метеонаблюдения

Эта сводка был подготовлена 5 минут назад, в 13:30 UTC
Ветер 8 Узел от северный
Температура 34°C
Влажность 36%
Давление 1007 hPa
Видимость 10 км и более
Нет облачности ниже 1500 м, и нет кучево-дождевой облачности

METAR: HECA 141330Z 35008KT CAVOK 34/17 Q1007 NOSIG

Время: 15:35 (13:35 UTC)

Прогноз

Эта сводка был подготовлена 2 часа и 35 минут назад, в 11:00 UTC
Прогноз действительный с 14-го 12 UTC до 15-го 18 UTC
Ветер 10 Узел от северо-западный
Видимость 10 км и более
небольшая облачность на высоте 2500 фута

TAF: HECA 141100Z 1412/1518 32010KT 9999 FEW025

Метеонаблюдения и прогнозы для более 4000 аэропортов (сводки METAR и TAF).

Имеющиеся станции представлены на карте желтыми и красными точками.

Чтобы увидеть название станции, наведите на нее мышь.

Затем щелкните, чтобы увидеть метеонаблюдения и метеопрогнозы.

Управление картой: чтобы увеличить масштаб, щелкните зеленые кнопки с черным крестиком; чтобы уменьшить масштаб, щелкните зеленую кнопку с тире; для просмотра соседних карт щелкайте зеленые стрелки.


METAR-TAF: